Rice, Kansas
Current Conditions -  °F | °C
As of 4:42 AM on Friday 31 Oct 2014 (Local Time) from KCNK Reporting Station
Broken Clouds Broken Clouds  
Wind Chill: 28°   Ceiling: 2400
Heat Index: 38°   Visibility: 10mi
Dew Point: 30°   Wind: 20mph
Humidity: 73%   Direction: 20°NNE
Pressure: 30.45"   Gusts: 32mph
Location:  39.4716°N, 97.7305°W
Report Text: KCNK 310942Z AUTO 02017G28KT 10SM BKN024 03/M01 A3045 RMK AO2 PK WND 36028/0938 T00331011
Loading
Personal Weather Stations






























Interactive Weather Map
Tropical Storm Tracking
New forecast layout! Learn more

10-Day Weather Forecast

Advertisements
Track Severe Weather on mobile